Time,TemperatureF,DewpointF,PressureIn,WindDirection,WindDirectionDegrees,WindSpeedMPH,WindSpeedGustMPH,Humidity,HourlyPrecipIn,Conditions,Clouds,dailyrainin,SoftwareType,DateUTC
2013-05-11 00:01:00,38.1,35.9,30.08,North,0,1.5,3.5,92,0.00,,,0.00,WUHU216HW,2013-05-11 04:01:00,
2013-05-11 00:02:00,37.9,35.7,30.08,WSW,248,1.7,1.7,92,0.00,,,0.00,WUHU216HW,2013-05-11 04:02:00,
2013-05-11 00:03:00,37.9,35.7,30.08,WSW,248,1.7,1.7,92,0.00,,,0.00,WUHU216HW,2013-05-11 04:03:00,
2013-05-11 00:08:00,37.9,35.7,30.08,WNW,293,0.0,1.7,92,0.00,,,0.00,WUHU216HW,2013-05-11 04:08:00,
2013-05-11 00:13:00,37.9,35.7,30.08,NNW,338,3.3,3.3,92,0.00,,,0.00,WUHU216HW,2013-05-11 04:13:00,
2013-05-11 00:18:00,37.9,35.7,30.08,NW,315,0.0,3.3,92,0.00,,,0.00,WUHU216HW,2013-05-11 04:18:00,
2013-05-11 00:23:00,37.9,35.7,30.08,West,270,0.0,1.5,92,0.00,,,0.00,WUHU216HW,2013-05-11 04:23:00,
2013-05-11 00:28:00,37.9,35.7,30.08,NW,315,1.7,1.7,92,0.00,,,0.00,WUHU216HW,2013-05-11 04:28:00,
2013-05-11 00:34:00,37.9,35.7,30.07,WNW,293,0.0,3.8,92,0.00,,,0.00,WUHU216HW,2013-05-11 04:34:00,
2013-05-11 00:39:00,37.9,35.7,30.07,WNW,293,0.0,3.8,92,0.00,,,0.00,WUHU216HW,2013-05-11 04:39:00,
2013-05-11 00:44:00,37.9,35.7,30.07,West,270,2.2,3.1,92,0.00,,,0.00,WUHU216HW,2013-05-11 04:44:00,
2013-05-11 00:49:00,37.9,35.7,30.07,WSW,248,0.0,3.1,92,0.00,,,0.00,WUHU216HW,2013-05-11 04:49:00,
2013-05-11 00:54:00,37.9,35.7,30.07,North,0,0.0,1.5,92,0.00,,,0.00,WUHU216HW,2013-05-11 04:54:00,
2013-05-11 00:59:00,37.7,35.6,30.07,NNW,338,0.0,1.5,92,0.00,,,0.00,WUHU216HW,2013-05-11 04:59:00,
2013-05-11 01:04:00,37.9,35.7,30.07,West,270,0.0,0.0,92,0.00,,,0.00,WUHU216HW,2013-05-11 05:04:00,
2013-05-11 01:09:00,37.7,35.6,30.06,WSW,248,0.0,0.0,92,0.00,,,0.00,WUHU216HW,2013-05-11 05:09:00,
2013-05-11 01:14:00,37.7,35.6,30.06,West,270,0.0,0.0,92,0.00,,,0.00,WUHU216HW,2013-05-11 05:14:00,
2013-05-11 01:20:00,37.7,35.6,30.06,West,270,0.0,0.0,92,0.00,,,0.00,WUHU216HW,2013-05-11 05:20:00,
2013-05-11 01:25:00,37.5,35.4,30.07,WNW,293,0.0,1.5,92,0.00,,,0.00,WUHU216HW,2013-05-11 05:25:00,
2013-05-11 01:30:00,37.5,35.4,30.07,WNW,293,0.0,1.5,92,0.00,,,0.00,WUHU216HW,2013-05-11 05:30:00,
2013-05-11 01:35:00,37.5,35.4,30.06,NW,315,0.0,1.7,92,0.00,,,0.00,WUHU216HW,2013-05-11 05:35:00,
2013-05-11 01:40:00,37.5,35.4,30.06,WSW,248,0.8,3.3,92,0.00,,,0.00,WUHU216HW,2013-05-11 05:40:00,
2013-05-11 01:45:00,37.4,35.2,30.06,WNW,293,0.0,3.3,92,0.00,,,0.00,WUHU216HW,2013-05-11 05:45:00,
2013-05-11 01:50:00,37.4,35.2,30.05,WNW,293,0.0,0.0,92,0.00,,,0.00,WUHU216HW,2013-05-11 05:50:00,
2013-05-11 01:55:00,37.4,35.2,30.05,West,270,0.0,2.2,92,0.00,,,0.00,WUHU216HW,2013-05-11 05:55:00,
2013-05-11 02:00:00,37.4,35.2,30.05,West,270,0.0,2.2,92,0.00,,,0.00,WUHU216HW,2013-05-11 06:00:00,
2013-05-11 02:06:00,37.2,35.0,30.05,NNW,338,0.0,0.0,92,0.00,,,0.00,WUHU216HW,2013-05-11 06:06:00,
2013-05-11 02:11:00,37.2,35.0,30.05,West,270,0.0,0.0,92,0.00,,,0.00,WUHU216HW,2013-05-11 06:11:00,
2013-05-11 02:16:00,37.2,35.0,30.04,NNW,338,0.0,0.0,92,0.00,,,0.00,WUHU216HW,2013-05-11 06:16:00,
2013-05-11 02:21:00,37.2,35.0,30.04,WNW,293,0.0,0.0,92,0.00,,,0.00,WUHU216HW,2013-05-11 06:21:00,
2013-05-11 02:26:00,37.2,35.0,30.04,NW,315,1.5,2.0,92,0.00,,,0.00,WUHU216HW,2013-05-11 06:26:00,
2013-05-11 02:31:00,37.4,34.9,30.04,NW,315,0.0,2.0,91,0.00,,,0.00,WUHU216HW,2013-05-11 06:31:00,
2013-05-11 02:36:00,37.4,34.9,30.04,WNW,293,0.0,2.0,91,0.00,,,0.00,WUHU216HW,2013-05-11 06:36:00,
2013-05-11 02:41:00,37.5,35.1,30.04,WNW,293,0.0,2.0,91,0.00,,,0.00,WUHU216HW,2013-05-11 06:41:00,
2013-05-11 02:46:00,37.5,35.1,30.04,NW,315,0.0,0.0,91,0.00,,,0.00,WUHU216HW,2013-05-11 06:46:00,
2013-05-11 02:52:00,37.5,35.1,30.04,WNW,293,0.0,2.4,91,0.00,,,0.00,WUHU216HW,2013-05-11 06:52:00,
2013-05-11 02:57:00,37.5,35.1,30.04,WNW,293,0.0,3.8,91,0.00,,,0.00,WUHU216HW,2013-05-11 06:57:00,
2013-05-11 03:02:00,37.7,35.3,30.04,West,270,0.0,3.8,91,0.00,,,0.00,WUHU216HW,2013-05-11 07:02:00,
2013-05-11 03:07:00,37.7,35.3,30.04,NW,315,0.0,1.5,91,0.00,,,0.00,WUHU216HW,2013-05-11 07:07:00,
2013-05-11 03:12:00,37.7,35.3,30.04,WNW,293,0.0,1.5,91,0.00,,,0.00,WUHU216HW,2013-05-11 07:12:00,
2013-05-11 03:17:00,37.7,35.3,30.04,NW,315,2.2,2.2,91,0.00,,,0.00,WUHU216HW,2013-05-11 07:17:00,
2013-05-11 03:22:00,37.7,35.3,30.03,West,270,0.0,2.2,91,0.00,,,0.00,WUHU216HW,2013-05-11 07:22:00,
2013-05-11 03:27:00,37.7,35.3,30.03,NW,315,0.0,0.0,91,0.00,,,0.00,WUHU216HW,2013-05-11 07:27:00,
2013-05-11 03:32:00,37.7,35.3,30.03,West,270,0.0,0.0,91,0.00,,,0.00,WUHU216HW,2013-05-11 07:32:00,
2013-05-11 03:38:00,37.7,35.3,30.03,NW,315,3.8,3.8,91,0.00,,,0.00,WUHU216HW,2013-05-11 07:38:00,
2013-05-11 03:43:00,37.7,35.3,30.03,NW,315,0.0,3.8,91,0.00,,,0.00,WUHU216HW,2013-05-11 07:43:00,
2013-05-11 03:48:00,37.7,35.3,30.02,NW,315,0.0,3.8,91,0.00,,,0.00,WUHU216HW,2013-05-11 07:48:00,
2013-05-11 03:53:00,37.7,35.0,30.03,NW,315,0.0,0.0,90,0.00,,,0.00,WUHU216HW,2013-05-11 07:53:00,
2013-05-11 03:58:00,37.9,35.2,30.03,NW,315,0.0,0.0,90,0.00,,,0.00,WUHU216HW,2013-05-11 07:58:00,
2013-05-11 04:03:00,37.9,35.2,30.03,West,270,0.0,0.0,90,0.00,,,0.00,WUHU216HW,2013-05-11 08:03:00,
2013-05-11 04:08:00,37.9,35.2,30.03,WSW,248,0.0,0.0,90,0.00,,,0.00,WUHU216HW,2013-05-11 08:08:00,
2013-05-11 04:13:00,37.9,35.2,30.03,West,270,0.0,0.6,90,0.00,,,0.00,WUHU216HW,2013-05-11 08:13:00,
2013-05-11 04:18:00,37.7,35.0,30.02,West,270,0.0,0.6,90,0.00,,,0.00,WUHU216HW,2013-05-11 08:18:00,
2013-05-11 04:24:00,37.7,35.0,30.02,WNW,293,0.0,0.0,90,0.00,,,0.00,WUHU216HW,2013-05-11 08:24:00,
2013-05-11 04:29:00,37.5,34.8,30.03,West,270,0.0,0.0,90,0.00,,,0.00,WUHU216HW,2013-05-11 08:29:00,
2013-05-11 04:34:00,37.4,34.7,30.03,West,270,0.0,0.0,90,0.00,,,0.00,WUHU216HW,2013-05-11 08:34:00,
2013-05-11 04:39:00,37.2,34.5,30.02,West,270,0.0,0.0,90,0.00,,,0.00,WUHU216HW,2013-05-11 08:39:00,
2013-05-11 04:44:00,37.2,34.5,30.03,WNW,293,0.0,0.0,90,0.00,,,0.00,WUHU216HW,2013-05-11 08:44:00,
2013-05-11 04:49:00,37.0,34.6,30.02,NW,315,0.0,3.5,91,0.00,,,0.00,WUHU216HW,2013-05-11 08:49:00,
2013-05-11 04:54:00,37.0,34.6,30.03,WNW,293,0.0,3.5,91,0.00,,,0.00,WUHU216HW,2013-05-11 08:54:00,
2013-05-11 04:59:00,36.8,34.4,30.03,West,270,0.0,0.0,91,0.00,,,0.00,WUHU216HW,2013-05-11 08:59:00,
2013-05-11 05:04:00,36.6,34.2,30.02,West,270,0.0,0.0,91,0.00,,,0.00,WUHU216HW,2013-05-11 09:04:00,
2013-05-11 05:10:00,36.5,33.8,30.02,WSW,248,0.0,0.0,90,0.00,,,0.00,WUHU216HW,2013-05-11 09:10:00,
2013-05-11 05:15:00,36.5,33.8,30.02,West,270,0.6,0.6,90,0.00,,,0.00,WUHU216HW,2013-05-11 09:15:00,
2013-05-11 05:20:00,36.5,33.8,30.02,WSW,248,0.0,0.6,90,0.00,,,0.00,WUHU216HW,2013-05-11 09:20:00,
2013-05-11 05:25:00,36.5,33.8,30.02,West,270,0.0,0.6,90,0.00,,,0.00,WUHU216HW,2013-05-11 09:25:00,
2013-05-11 05:30:00,36.6,34.2,30.02,WSW,248,0.0,0.0,91,0.00,,,0.00,WUHU216HW,2013-05-11 09:30:00,
2013-05-11 05:35:00,36.6,34.2,30.02,West,270,0.0,0.0,91,0.00,,,0.00,WUHU216HW,2013-05-11 09:35:00,
2013-05-11 05:40:00,36.8,34.4,30.02,West,270,1.3,2.2,91,0.00,,,0.00,WUHU216HW,2013-05-11 09:40:00,
2013-05-11 05:45:00,36.8,34.4,30.02,West,270,0.0,2.2,91,0.00,,,0.00,WUHU216HW,2013-05-11 09:45:00,
2013-05-11 05:50:00,37.0,34.6,30.02,West,270,0.0,0.0,91,0.00,,,0.00,WUHU216HW,2013-05-11 09:50:00,
2013-05-11 05:55:00,37.0,34.6,30.02,WSW,248,0.0,1.3,91,0.00,,,0.00,WUHU216HW,2013-05-11 09:55:00,
2013-05-11 06:01:00,37.0,34.6,30.02,West,270,0.0,1.3,91,0.00,,,0.00,WUHU216HW,2013-05-11 10:01:00,
2013-05-11 06:06:00,37.0,34.6,30.02,WSW,248,1.7,1.7,91,0.00,,,0.00,WUHU216HW,2013-05-11 10:06:00,
2013-05-11 06:11:00,37.0,34.6,30.02,WNW,293,0.0,1.7,91,0.00,,,0.00,WUHU216HW,2013-05-11 10:11:00,
2013-05-11 06:16:00,36.5,33.8,30.02,West,270,0.0,0.0,90,0.00,,,0.00,WUHU216HW,2013-05-11 10:16:00,
2013-05-11 06:21:00,36.3,33.6,30.02,West,270,0.0,1.7,90,0.00,,,0.00,WUHU216HW,2013-05-11 10:21:00,
2013-05-11 06:26:00,35.7,33.0,30.02,WNW,293,0.0,1.7,90,0.00,,,0.00,WUHU216HW,2013-05-11 10:26:00,
2013-05-11 06:31:00,35.4,32.7,30.02,West,270,0.0,1.7,90,0.00,,,0.00,WUHU216HW,2013-05-11 10:31:00,
2013-05-11 06:36:00,35.2,32.5,30.02,West,270,0.0,1.3,90,0.00,,,0.00,WUHU216HW,2013-05-11 10:36:00,
2013-05-11 06:41:00,35.0,32.3,30.02,West,270,0.0,1.3,90,0.00,,,0.00,WUHU216HW,2013-05-11 10:41:00,
2013-05-11 06:47:00,34.8,32.1,30.02,West,270,0.0,0.0,90,0.00,,,0.00,WUHU216HW,2013-05-11 10:47:00,
2013-05-11 06:52:00,34.8,32.4,30.02,WSW,248,0.0,0.0,91,0.00,,,0.00,WUHU216HW,2013-05-11 10:52:00,
2013-05-11 06:57:00,34.8,32.4,30.02,West,270,0.0,0.0,91,0.00,,,0.00,WUHU216HW,2013-05-11 10:57:00,
2013-05-11 07:02:00,35.2,32.8,30.02,WSW,248,1.5,1.5,91,0.00,,,0.00,WUHU216HW,2013-05-11 11:02:00,
2013-05-11 07:07:00,35.2,32.8,30.03,West,270,0.0,1.5,91,0.00,,,0.00,WUHU216HW,2013-05-11 11:07:00,
2013-05-11 07:12:00,35.6,33.1,30.02,West,270,0.0,1.5,91,0.00,,,0.00,WUHU216HW,2013-05-11 11:12:00,
2013-05-11 07:17:00,36.1,33.9,30.02,West,270,0.0,1.5,92,0.00,,,0.00,WUHU216HW,2013-05-11 11:17:00,
2013-05-11 07:22:00,37.4,35.2,30.02,WSW,248,1.3,1.3,92,0.00,,,0.00,WUHU216HW,2013-05-11 11:22:00,
2013-05-11 07:27:00,38.3,35.8,30.02,West,270,0.0,1.3,91,0.00,,,0.00,WUHU216HW,2013-05-11 11:27:00,
2013-05-11 07:33:00,38.8,36.4,30.02,SW,225,2.4,2.4,91,0.00,,,0.00,WUHU216HW,2013-05-11 11:33:00,
2013-05-11 07:38:00,39.2,36.5,30.01,WSW,248,0.0,2.9,90,0.00,,,0.00,WUHU216HW,2013-05-11 11:38:00,
2013-05-11 07:43:00,39.9,37.2,30.01,West,270,2.4,2.9,90,0.00,,,0.00,WUHU216HW,2013-05-11 11:43:00,
2013-05-11 07:48:00,40.6,37.6,30.01,West,270,0.0,2.6,89,0.00,,,0.00,WUHU216HW,2013-05-11 11:48:00,
2013-05-11 07:53:00,40.6,37.3,30.01,WSW,248,1.3,2.6,88,0.00,,,0.00,WUHU216HW,2013-05-11 11:53:00,
2013-05-11 07:58:00,40.8,37.2,30.01,West,270,0.0,1.3,87,0.00,,,0.00,WUHU216HW,2013-05-11 11:58:00,
2013-05-11 08:03:00,41.1,37.2,30.01,WNW,293,0.0,1.5,86,0.00,,,0.00,WUHU216HW,2013-05-11 12:03:00,
2013-05-11 08:08:00,41.9,37.9,30.01,West,270,0.0,1.5,86,0.00,,,0.00,WUHU216HW,2013-05-11 12:08:00,
2013-05-11 08:13:00,43.5,38.9,30.01,WNW,293,1.5,1.5,84,0.00,,,0.00,WUHU216HW,2013-05-11 12:13:00,
2013-05-11 08:19:00,43.5,38.6,30.01,West,270,0.0,1.5,83,0.00,,,0.00,WUHU216HW,2013-05-11 12:19:00,
2013-05-11 08:24:00,44.4,38.6,30.01,WNW,293,0.0,1.5,80,0.00,,,0.00,WUHU216HW,2013-05-11 12:24:00,
2013-05-11 08:29:00,44.7,38.3,30.01,WNW,293,0.0,2.2,78,0.00,,,0.00,WUHU216HW,2013-05-11 12:29:00,
2013-05-11 08:34:00,44.6,37.8,30.01,WSW,248,0.0,2.2,77,0.00,,,0.00,WUHU216HW,2013-05-11 12:34:00,
2013-05-11 08:39:00,44.7,37.9,30.01,WSW,248,0.0,0.0,77,0.00,,,0.00,WUHU216HW,2013-05-11 12:39:00,
2013-05-11 08:44:00,45.1,38.3,30.01,WSW,248,0.0,0.0,77,0.00,,,0.00,WUHU216HW,2013-05-11 12:44:00,
2013-05-11 08:49:00,46.0,38.9,30.02,NW,315,0.0,0.0,76,0.00,,,0.00,WUHU216HW,2013-05-11 12:49:00,
2013-05-11 08:54:00,45.8,37.3,30.01,WNW,293,0.0,0.0,72,0.00,,,0.00,WUHU216HW,2013-05-11 12:54:00,
2013-05-11 08:59:00,46.0,37.8,30.01,WSW,248,2.0,2.0,73,0.00,,,0.00,WUHU216HW,2013-05-11 12:59:00,
2013-05-11 09:05:00,46.2,38.0,30.01,West,270,0.0,2.0,73,0.00,,,0.00,WUHU216HW,2013-05-11 13:05:00,
2013-05-11 09:10:00,46.4,37.9,30.01,West,270,1.5,1.5,72,0.00,,,0.00,WUHU216HW,2013-05-11 13:10:00,
2013-05-11 09:15:00,46.0,37.2,30.01,WNW,293,0.0,1.5,71,0.00,,,0.00,WUHU216HW,2013-05-11 13:15:00,
2013-05-11 09:20:00,45.6,36.8,30.01,NW,315,0.0,1.7,71,0.00,,,0.00,WUHU216HW,2013-05-11 13:20:00,
2013-05-11 09:25:00,46.2,38.0,30.00,NE,45,0.0,1.7,73,0.00,,,0.00,WUHU216HW,2013-05-11 13:25:00,
2013-05-11 09:30:00,47.1,38.3,30.01,South,180,0.8,1.5,72,0.00,,,0.00,WUHU216HW,2013-05-11 13:30:00,
2013-05-11 09:35:00,47.8,38.8,30.00,South,180,0.0,1.7,71,0.00,,,0.00,WUHU216HW,2013-05-11 13:35:00,
2013-05-11 09:40:00,48.5,38.8,30.01,West,270,0.0,1.7,69,0.00,,,0.00,WUHU216HW,2013-05-11 13:40:00,
2013-05-11 09:45:00,49.2,38.7,30.00,West,270,0.0,0.0,68,0.00,,,0.00,WUHU216HW,2013-05-11 13:45:00,
2013-05-11 09:50:00,50.1,38.8,30.00,SSW,203,2.6,2.6,65,0.00,,,0.00,WUHU216HW,2013-05-11 13:50:00,
2013-05-11 09:55:00,50.9,39.5,29.99,West,270,0.6,2.6,65,0.00,,,0.00,WUHU216HW,2013-05-11 13:55:00,
2013-05-11 10:01:00,52.3,40.0,29.99,SE,135,0.0,2.6,63,0.00,,,0.00,WUHU216HW,2013-05-11 14:01:00,
2013-05-11 10:06:00,52.7,40.4,29.99,SSE,158,4.6,4.6,63,0.00,,,0.00,WUHU216HW,2013-05-11 14:06:00,
2013-05-11 10:11:00,52.8,40.1,29.98,SE,135,1.5,4.6,62,0.00,,,0.00,WUHU216HW,2013-05-11 14:11:00,
2013-05-11 10:16:00,53.7,41.0,29.97,NNE,23,2.0,4.6,62,0.00,,,0.00,WUHU216HW,2013-05-11 14:16:00,
2013-05-11 10:21:00,54.3,40.7,29.98,SE,135,1.3,2.0,60,0.00,,,0.00,WUHU216HW,2013-05-11 14:21:00,
2013-05-11 10:26:00,55.5,41.4,29.97,SE,135,4.0,4.0,59,0.00,,,0.00,WUHU216HW,2013-05-11 14:26:00,
2013-05-11 10:31:00,54.8,39.8,29.98,SSE,158,4.6,6.0,57,0.00,,,0.00,WUHU216HW,2013-05-11 14:31:00,
2013-05-11 10:36:00,53.6,39.1,29.97,SSE,158,5.3,6.2,58,0.00,,,0.00,WUHU216HW,2013-05-11 14:36:00,
2013-05-11 10:41:00,53.4,40.3,29.97,SE,135,5.1,6.9,61,0.00,,,0.00,WUHU216HW,2013-05-11 14:41:00,
2013-05-11 10:47:00,53.7,40.2,29.97,SE,135,5.1,6.9,60,0.00,,,0.00,WUHU216HW,2013-05-11 14:47:00,
2013-05-11 10:52:00,53.7,40.6,29.97,SE,135,3.8,6.7,61,0.00,,,0.00,WUHU216HW,2013-05-11 14:52:00,
2013-05-11 10:57:00,53.7,39.7,29.97,SE,135,6.0,6.0,59,0.00,,,0.00,WUHU216HW,2013-05-11 14:57:00,
2013-05-11 11:02:00,53.4,39.7,29.97,SSE,158,8.2,8.2,60,0.00,,,0.00,WUHU216HW,2013-05-11 15:02:00,
2013-05-11 11:07:00,53.2,39.7,29.96,SSE,158,7.1,8.2,60,0.00,,,0.00,WUHU216HW,2013-05-11 15:07:00,
2013-05-11 11:12:00,52.8,39.3,29.96,SE,135,6.2,8.2,60,0.00,,,0.00,WUHU216HW,2013-05-11 15:12:00,
2013-05-11 11:17:00,53.4,40.5,29.96,SSE,158,9.1,9.1,61,0.00,,,0.00,WUHU216HW,2013-05-11 15:17:00,
2013-05-11 11:22:00,53.0,40.7,29.95,SSE,158,10.0,11.1,63,0.00,,,0.00,WUHU216HW,2013-05-11 15:22:00,
2013-05-11 11:27:00,52.8,41.3,29.95,SE,135,12.0,12.0,65,0.00,,,0.00,WUHU216HW,2013-05-11 15:27:00,
2013-05-11 11:33:00,52.5,41.0,29.95,SE,135,9.6,12.0,65,0.00,,,0.00,WUHU216HW,2013-05-11 15:33:00,
2013-05-11 11:38:00,51.9,40.9,29.95,SE,135,9.1,12.9,66,0.00,,,0.00,WUHU216HW,2013-05-11 15:38:00,
2013-05-11 11:43:00,52.1,41.9,29.95,SSE,158,12.9,12.9,68,0.00,,,0.00,WUHU216HW,2013-05-11 15:43:00,
2013-05-11 11:48:00,52.3,41.2,29.94,SSE,158,14.3,14.3,66,0.00,,,0.00,WUHU216HW,2013-05-11 15:48:00,
2013-05-11 11:53:00,53.2,42.5,29.94,SSE,158,13.1,14.3,67,0.00,,,0.00,WUHU216HW,2013-05-11 15:53:00,
2013-05-11 11:58:00,53.4,42.6,29.94,SSE,158,17.2,17.2,67,0.00,,,0.00,WUHU216HW,2013-05-11 15:58:00,
2013-05-11 12:03:00,53.7,44.2,29.94,SSE,158,14.9,17.2,70,0.00,,,0.00,WUHU216HW,2013-05-11 16:03:00,
2013-05-11 12:08:00,53.7,43.4,29.93,SSE,158,19.0,19.0,68,0.00,,,0.00,WUHU216HW,2013-05-11 16:08:00,
2013-05-11 12:13:00,53.4,43.4,29.93,SSE,158,20.5,20.5,69,0.00,,,0.00,WUHU216HW,2013-05-11 16:13:00,
2013-05-11 12:18:00,53.4,43.4,29.93,SSE,158,14.3,20.5,69,0.00,,,0.00,WUHU216HW,2013-05-11 16:18:00,
2013-05-11 12:24:00,53.2,43.3,29.93,SSE,158,19.0,20.5,69,0.00,,,0.00,WUHU216HW,2013-05-11 16:24:00,
2013-05-11 12:29:00,53.4,43.8,29.93,SSE,158,15.2,20.1,70,0.00,,,0.00,WUHU216HW,2013-05-11 16:29:00,
2013-05-11 12:34:00,53.2,44.0,29.93,SSE,158,17.8,20.1,71,0.00,,,0.00,WUHU216HW,2013-05-11 16:34:00,
2013-05-11 12:39:00,52.1,43.7,29.92,SSE,158,18.3,18.3,73,0.00,,,0.00,WUHU216HW,2013-05-11 16:39:00,
2013-05-11 12:44:00,51.4,43.7,29.92,SSE,158,14.3,21.0,75,0.00,,,0.00,WUHU216HW,2013-05-11 16:44:00,
2013-05-11 12:49:00,51.6,43.9,29.91,SSE,158,12.5,22.3,75,0.00,,,0.00,WUHU216HW,2013-05-11 16:49:00,
2013-05-11 12:54:00,51.6,42.6,29.91,SSE,158,21.2,22.3,71,0.00,,,0.00,WUHU216HW,2013-05-11 16:54:00,
2013-05-11 12:59:00,51.0,42.4,29.91,SSE,158,21.4,21.4,72,0.00,,,0.00,WUHU216HW,2013-05-11 16:59:00,
2013-05-11 13:04:00,51.8,43.4,29.91,SSE,158,22.3,22.3,73,0.00,,,0.00,WUHU216HW,2013-05-11 17:04:00,
2013-05-11 13:10:00,53.7,44.2,29.91,SSE,158,19.6,23.0,70,0.00,,,0.00,WUHU216HW,2013-05-11 17:10:00,
2013-05-11 13:15:00,54.1,44.9,29.90,SSE,158,21.4,23.0,71,0.00,,,0.00,WUHU216HW,2013-05-11 17:15:00,
2013-05-11 13:20:00,53.7,45.6,29.90,SSE,158,22.8,22.8,74,0.00,,,0.00,WUHU216HW,2013-05-11 17:20:00,
2013-05-11 13:25:00,54.1,45.3,29.90,SSE,158,21.0,22.8,72,0.00,,,0.00,WUHU216HW,2013-05-11 17:25:00,
2013-05-11 13:30:00,53.2,44.4,29.90,SSE,158,20.5,23.2,72,0.00,,,0.00,WUHU216HW,2013-05-11 17:30:00,
2013-05-11 13:35:00,52.3,44.3,29.89,South,180,22.1,23.2,74,0.00,,,0.00,WUHU216HW,2013-05-11 17:35:00,
2013-05-11 13:40:00,52.3,44.9,29.88,SSE,158,17.4,22.1,76,0.00,,,0.00,WUHU216HW,2013-05-11 17:40:00,
2013-05-11 13:45:00,51.6,44.6,29.88,SSE,158,22.3,22.3,77,0.00,,,0.00,WUHU216HW,2013-05-11 17:45:00,
2013-05-11 13:50:00,51.4,44.8,29.88,South,180,13.4,22.3,78,0.00,,,0.00,WUHU216HW,2013-05-11 17:50:00,
2013-05-11 13:55:00,51.2,44.6,29.88,SSE,158,20.5,20.5,78,0.00,,,0.00,WUHU216HW,2013-05-11 17:55:00,
2013-05-11 14:01:00,50.7,43.7,29.88,SSE,158,19.6,23.9,77,0.00,,,0.00,WUHU216HW,2013-05-11 18:01:00,
2013-05-11 14:06:00,51.2,44.6,29.88,SSE,158,17.0,23.9,78,0.00,,,0.00,WUHU216HW,2013-05-11 18:06:00,
2013-05-11 14:11:00,52.3,45.6,29.87,South,180,15.2,25.5,78,0.00,,,0.00,WUHU216HW,2013-05-11 18:11:00,
2013-05-11 14:16:00,52.7,46.0,29.87,South,180,21.2,25.5,78,0.00,,,0.00,WUHU216HW,2013-05-11 18:16:00,
2013-05-11 14:21:00,52.3,45.3,29.87,SSE,158,22.1,22.1,77,0.00,,,0.00,WUHU216HW,2013-05-11 18:21:00,
2013-05-11 14:26:00,52.3,46.4,29.87,SSE,158,20.5,22.1,80,0.00,,,0.00,WUHU216HW,2013-05-11 18:26:00,
2013-05-11 14:31:00,52.8,46.2,29.87,SSE,158,16.3,24.3,78,0.00,,,0.00,WUHU216HW,2013-05-11 18:31:00,
2013-05-11 14:36:00,54.3,46.8,29.87,SSW,203,17.4,24.3,76,0.00,,,0.00,WUHU216HW,2013-05-11 18:36:00,
2013-05-11 14:41:00,55.2,47.3,29.87,SSE,158,22.8,23.4,75,0.00,,,0.00,WUHU216HW,2013-05-11 18:41:00,
2013-05-11 14:46:00,55.9,47.3,29.86,SSE,158,22.3,23.4,73,0.00,,,0.00,WUHU216HW,2013-05-11 18:46:00,
2013-05-11 14:51:00,56.3,48.4,29.86,SSE,158,20.5,23.7,75,0.00,,,0.00,WUHU216HW,2013-05-11 18:51:00,
2013-05-11 14:57:00,57.0,47.3,29.86,South,180,21.6,23.7,70,0.00,,,0.00,WUHU216HW,2013-05-11 18:57:00,
2013-05-11 15:02:00,55.7,46.5,29.86,South,180,19.4,21.9,71,0.00,,,0.00,WUHU216HW,2013-05-11 19:02:00,
2013-05-11 15:07:00,52.7,46.0,29.86,SSE,158,12.3,21.9,78,0.00,,,0.00,WUHU216HW,2013-05-11 19:07:00,
2013-05-11 15:12:00,53.4,46.0,29.85,SW,225,1.1,19.4,76,0.00,,,0.00,WUHU216HW,2013-05-11 19:12:00,
2013-05-11 15:17:00,54.5,46.0,29.85,SW,225,4.6,10.5,73,0.00,,,0.00,WUHU216HW,2013-05-11 19:17:00,
2013-05-11 15:22:00,54.8,45.6,29.85,South,180,8.9,10.5,71,0.00,,,0.00,WUHU216HW,2013-05-11 19:22:00,
2013-05-11 15:27:00,54.5,45.6,29.85,SSE,158,8.7,18.5,72,0.00,,,0.00,WUHU216HW,2013-05-11 19:27:00,
2013-05-11 15:32:00,54.6,45.8,29.85,South,180,2.0,18.5,72,0.00,,,0.00,WUHU216HW,2013-05-11 19:32:00,
2013-05-11 15:38:00,55.2,46.0,29.84,SSE,158,5.1,8.7,71,0.00,,,0.00,WUHU216HW,2013-05-11 19:38:00,
2013-05-11 15:43:00,54.8,45.6,29.84,SSE,158,4.6,6.9,71,0.00,,,0.00,WUHU216HW,2013-05-11 19:43:00,
2013-05-11 15:48:00,54.1,45.3,29.84,SSE,158,6.2,6.2,72,0.00,,,0.00,WUHU216HW,2013-05-11 19:48:00,
2013-05-11 15:53:00,53.7,45.6,29.83,SSE,158,4.4,6.2,74,0.00,,,0.00,WUHU216HW,2013-05-11 19:53:00,
2013-05-11 15:58:00,54.5,46.0,29.83,SSE,158,8.9,8.9,73,0.00,,,0.00,WUHU216HW,2013-05-11 19:58:00,
2013-05-11 16:03:00,57.0,47.6,29.82,South,180,6.0,8.9,71,0.00,,,0.00,WUHU216HW,2013-05-11 20:03:00,
2013-05-11 16:08:00,59.1,48.2,29.82,SSE,158,18.7,18.7,67,0.00,,,0.00,WUHU216HW,2013-05-11 20:08:00,
2013-05-11 16:13:00,58.4,49.1,29.81,SSE,158,12.3,18.7,71,0.00,,,0.00,WUHU216HW,2013-05-11 20:13:00,
2013-05-11 16:19:00,56.8,48.2,29.81,SSE,158,14.9,18.7,73,0.00,,,0.00,WUHU216HW,2013-05-11 20:19:00,
2013-05-11 16:24:00,54.3,47.2,29.81,SE,135,11.8,18.3,77,0.00,,,0.00,WUHU216HW,2013-05-11 20:24:00,
2013-05-11 16:29:00,52.1,45.1,29.82,SSE,158,21.0,21.0,77,0.00,,,0.00,WUHU216HW,2013-05-11 20:29:00,
2013-05-11 16:34:00,49.8,43.8,29.82,SSE,158,18.5,21.0,80,0.00,,,0.00,WUHU216HW,2013-05-11 20:34:00,
2013-05-11 16:39:00,47.1,42.5,29.82,SSE,158,17.0,18.5,84,0.00,,,0.00,WUHU216HW,2013-05-11 20:39:00,
2013-05-11 16:44:00,46.0,42.4,29.82,SE,135,11.1,17.0,87,0.00,,,0.00,WUHU216HW,2013-05-11 20:44:00,
2013-05-11 16:49:00,45.1,41.5,29.81,SSE,158,15.6,16.3,87,0.00,,,0.00,WUHU216HW,2013-05-11 20:49:00,
2013-05-11 16:54:00,44.7,41.4,29.82,SSE,158,10.5,15.6,88,0.00,,,0.00,WUHU216HW,2013-05-11 20:54:00,
2013-05-11 17:00:00,44.4,41.7,29.82,SSE,158,14.5,15.6,90,0.00,,,0.00,WUHU216HW,2013-05-11 21:00:00,
2013-05-11 17:05:00,44.4,41.7,29.81,South,180,7.3,14.5,90,0.00,,,0.00,WUHU216HW,2013-05-11 21:05:00,
2013-05-11 17:10:00,44.4,41.7,29.81,South,180,4.4,14.5,90,0.00,,,0.00,WUHU216HW,2013-05-11 21:10:00,
2013-05-11 17:15:00,44.9,42.5,29.81,SSE,158,12.9,14.0,91,0.00,,,0.00,WUHU216HW,2013-05-11 21:15:00,
2013-05-11 17:20:00,45.1,42.7,29.81,SSE,158,0.0,12.9,91,0.00,,,0.00,WUHU216HW,2013-05-11 21:20:00,
2013-05-11 17:25:00,45.3,42.8,29.82,NW,315,4.6,12.7,91,0.00,,,0.00,WUHU216HW,2013-05-11 21:25:00,
2013-05-11 17:30:00,45.3,42.8,29.85,NW,315,2.4,6.7,91,0.00,,,0.00,WUHU216HW,2013-05-11 21:30:00,
2013-05-11 17:35:00,45.1,42.7,29.86,NNW,338,1.7,6.7,91,0.00,,,0.00,WUHU216HW,2013-05-11 21:35:00,
2013-05-11 17:40:00,44.4,41.7,29.84,NNW,338,3.5,5.1,90,0.00,,,0.00,WUHU216HW,2013-05-11 21:40:00,
2013-05-11 17:45:00,43.8,41.1,29.86,West,270,0.0,5.1,90,0.00,,,0.00,WUHU216HW,2013-05-11 21:45:00,
2013-05-11 17:51:00,43.5,40.5,29.86,NW,315,3.3,3.5,89,0.00,,,0.00,WUHU216HW,2013-05-11 21:51:00,
2013-05-11 17:56:00,43.1,40.1,29.86,West,270,4.6,5.1,89,0.00,,,0.00,WUHU216HW,2013-05-11 21:56:00,
2013-05-11 18:01:00,42.6,39.6,29.87,WNW,293,4.4,7.6,89,0.00,,,0.00,WUHU216HW,2013-05-11 22:01:00,
2013-05-11 18:06:00,42.0,38.7,29.87,WSW,248,5.3,7.6,88,0.00,,,0.00,WUHU216HW,2013-05-11 22:06:00,
2013-05-11 18:11:00,41.0,37.6,29.88,WNW,293,0.6,5.3,88,0.00,,,0.00,WUHU216HW,2013-05-11 22:11:00,
2013-05-11 18:16:00,40.6,37.3,29.89,NW,315,1.1,4.0,88,0.00,,,0.00,WUHU216HW,2013-05-11 22:16:00,
2013-05-11 18:21:00,40.2,36.9,29.89,SE,135,0.0,4.0,88,0.00,,,0.00,WUHU216HW,2013-05-11 22:21:00,
2013-05-11 18:26:00,40.1,37.0,29.89,West,270,0.0,1.5,89,0.00,,,0.00,WUHU216HW,2013-05-11 22:26:00,
2013-05-11 18:31:00,40.1,37.0,29.89,NNE,23,4.0,5.8,89,0.00,,,0.00,WUHU216HW,2013-05-11 22:31:00,
2013-05-11 18:37:00,40.2,37.5,29.88,NW,315,4.9,5.8,90,0.00,,,0.00,WUHU216HW,2013-05-11 22:37:00,
2013-05-11 18:42:00,40.6,37.9,29.89,NNW,338,0.0,4.9,90,0.00,,,0.00,WUHU216HW,2013-05-11 22:42:00,
2013-05-11 18:47:00,40.8,38.1,29.89,NNW,338,7.6,8.0,90,0.00,,,0.00,WUHU216HW,2013-05-11 22:47:00,
2013-05-11 18:52:00,40.8,37.8,29.89,WSW,248,3.1,8.0,89,0.00,,,0.00,WUHU216HW,2013-05-11 22:52:00,
2013-05-11 18:57:00,40.8,37.5,29.90,West,270,0.8,4.0,88,0.00,,,0.00,WUHU216HW,2013-05-11 22:57:00,
2013-05-11 19:02:00,40.6,37.3,29.90,West,270,7.1,7.1,88,0.00,,,0.00,WUHU216HW,2013-05-11 23:02:00,
2013-05-11 19:07:00,40.1,36.5,29.90,NNW,338,4.2,7.1,87,0.00,,,0.00,WUHU216HW,2013-05-11 23:07:00,
2013-05-11 19:12:00,39.5,35.9,29.90,NW,315,3.8,4.4,87,0.00,,,0.00,WUHU216HW,2013-05-11 23:12:00,
2013-05-11 19:17:00,39.0,35.1,29.91,NW,315,8.0,8.0,86,0.00,,,0.00,WUHU216HW,2013-05-11 23:17:00,
2013-05-11 19:23:00,39.0,35.1,29.91,West,270,6.0,8.0,86,0.00,,,0.00,WUHU216HW,2013-05-11 23:23:00,
2013-05-11 19:28:00,38.6,34.5,29.91,NNW,338,3.1,6.0,85,0.00,,,0.00,WUHU216HW,2013-05-11 23:28:00,
2013-05-11 19:33:00,38.4,34.6,29.91,West,270,10.0,12.3,86,0.00,,,0.00,WUHU216HW,2013-05-11 23:33:00,
2013-05-11 19:38:00,38.3,34.1,29.91,WNW,293,0.0,12.3,85,0.00,,,0.00,WUHU216HW,2013-05-11 23:38:00,
2013-05-11 19:43:00,38.1,34.2,29.92,WNW,293,6.0,8.0,86,0.00,,,0.00,WUHU216HW,2013-05-11 23:43:00,
2013-05-11 19:48:00,37.9,34.2,29.93,WSW,248,3.1,8.0,86,0.00,,,0.00,WUHU216HW,2013-05-11 23:48:00,
2013-05-11 19:53:00,37.9,33.8,29.93,WNW,293,2.9,7.3,85,0.00,,,0.00,WUHU216HW,2013-05-11 23:53:00,
2013-05-11 19:58:00,37.5,33.4,29.93,NW,315,2.0,7.3,85,0.00,,,0.00,WUHU216HW,2013-05-11 23:58:00,
2013-05-11 20:03:00,37.5,33.7,29.93,NNW,338,8.9,8.9,86,0.00,,,0.00,WUHU216HW,2013-05-12 00:03:00,
2013-05-11 20:09:00,37.4,33.2,29.94,West,270,0.0,8.9,85,0.00,,,0.00,WUHU216HW,2013-05-12 00:09:00,
2013-05-11 20:14:00,37.2,33.0,29.94,NW,315,4.2,8.9,85,0.00,,,0.00,WUHU216HW,2013-05-12 00:14:00,
2013-05-11 20:19:00,37.0,32.9,29.94,NW,315,2.4,4.2,85,0.00,,,0.00,WUHU216HW,2013-05-12 00:19:00,
2013-05-11 20:24:00,37.0,32.9,29.95,WNW,293,0.0,2.4,85,0.00,,,0.00,WUHU216HW,2013-05-12 00:24:00,
2013-05-11 20:29:00,36.5,32.3,29.95,WNW,293,0.0,3.5,85,0.00,,,0.00,WUHU216HW,2013-05-12 00:29:00,
2013-05-11 20:34:00,36.3,32.1,29.95,North,0,8.0,8.0,85,0.00,,,0.00,WUHU216HW,2013-05-12 00:34:00,
2013-05-11 20:39:00,36.3,32.1,29.95,West,270,0.0,8.0,85,0.00,,,0.00,WUHU216HW,2013-05-12 00:39:00,
2013-05-11 20:44:00,35.9,31.8,29.95,NNW,338,2.0,8.0,85,0.00,,,0.00,WUHU216HW,2013-05-12 00:44:00,
2013-05-11 20:49:00,35.9,32.1,29.95,West,270,0.0,3.1,86,0.00,,,0.00,WUHU216HW,2013-05-12 00:49:00,
2013-05-11 20:54:00,35.9,32.1,29.95,NNW,338,3.1,3.1,86,0.00,,,0.00,WUHU216HW,2013-05-12 00:54:00,
2013-05-11 21:00:00,35.7,31.9,29.96,NW,315,0.0,8.5,86,0.00,,,0.00,WUHU216HW,2013-05-12 01:00:00,
2013-05-11 21:05:00,35.7,31.9,29.97,WSW,248,0.6,8.5,86,0.00,,,0.00,WUHU216HW,2013-05-12 01:05:00,
2013-05-11 21:10:00,35.7,31.9,29.96,NW,315,0.0,2.0,86,0.00,,,0.00,WUHU216HW,2013-05-12 01:10:00,
2013-05-11 21:15:00,35.7,31.9,29.97,West,270,0.0,0.6,86,0.00,,,0.00,WUHU216HW,2013-05-12 01:15:00,
2013-05-11 21:20:00,35.9,32.1,29.97,WSW,248,0.0,2.6,86,0.00,,,0.00,WUHU216HW,2013-05-12 01:20:00,
2013-05-11 21:25:00,35.7,31.9,29.96,WNW,293,0.0,3.1,86,0.00,,,0.00,WUHU216HW,2013-05-12 01:25:00,
2013-05-11 21:30:00,35.7,31.9,29.96,West,270,2.9,3.1,86,0.00,,,0.00,WUHU216HW,2013-05-12 01:30:00,
2013-05-11 21:35:00,35.7,31.9,29.97,West,270,0.0,3.3,86,0.00,,,0.00,WUHU216HW,2013-05-12 01:35:00,
2013-05-11 21:40:00,35.9,32.1,29.97,SW,225,0.0,5.3,86,0.00,,,0.00,WUHU216HW,2013-05-12 01:40:00,
2013-05-11 21:45:00,35.7,31.9,29.97,WSW,248,0.0,5.3,86,0.00,,,0.00,WUHU216HW,2013-05-12 01:45:00,
2013-05-11 21:50:00,35.7,31.9,29.97,NW,315,0.0,0.0,86,0.00,,,0.00,WUHU216HW,2013-05-12 01:50:00,
2013-05-11 21:56:00,35.2,31.3,29.97,West,270,0.0,0.0,86,0.00,,,0.00,WUHU216HW,2013-05-12 01:56:00,
2013-05-11 22:01:00,34.7,30.8,29.97,SW,225,0.0,0.0,86,0.00,,,0.00,WUHU216HW,2013-05-12 02:01:00,
2013-05-11 22:06:00,34.3,30.4,29.97,WSW,248,2.0,2.0,86,0.00,,,0.00,WUHU216HW,2013-05-12 02:06:00,
2013-05-11 22:11:00,33.9,30.4,29.97,West,270,0.0,2.0,87,0.00,,,0.00,WUHU216HW,2013-05-12 02:11:00,
2013-05-11 22:16:00,33.9,30.4,29.97,West,270,1.5,3.1,87,0.00,,,0.00,WUHU216HW,2013-05-12 02:16:00,
2013-05-11 22:21:00,33.8,30.2,29.97,SW,225,0.0,3.1,87,0.00,,,0.00,WUHU216HW,2013-05-12 02:21:00,
2013-05-11 22:26:00,33.6,30.0,29.97,West,270,0.0,1.5,87,0.00,,,0.00,WUHU216HW,2013-05-12 02:26:00,
2013-05-11 22:31:00,33.6,30.3,29.97,WNW,293,0.0,1.5,88,0.00,,,0.00,WUHU216HW,2013-05-12 02:31:00,
2013-05-11 22:36:00,33.4,30.2,29.97,WNW,293,0.0,1.5,88,0.00,,,0.00,WUHU216HW,2013-05-12 02:36:00,
2013-05-11 22:41:00,33.2,30.0,29.96,SSW,203,1.3,1.3,88,0.00,,,0.00,WUHU216HW,2013-05-12 02:41:00,
2013-05-11 22:46:00,33.0,29.8,29.96,SW,225,0.8,1.3,88,0.00,,,0.00,WUHU216HW,2013-05-12 02:46:00,
2013-05-11 22:52:00,32.9,30.0,29.96,WSW,248,0.0,0.8,89,0.00,,,0.00,WUHU216HW,2013-05-12 02:52:00,
2013-05-11 22:57:00,32.7,29.8,29.96,SW,225,0.0,0.8,89,0.00,,,0.00,WUHU216HW,2013-05-12 02:57:00,
2013-05-11 23:02:00,32.7,29.8,29.96,NW,315,0.0,0.0,89,0.00,,,0.00,WUHU216HW,2013-05-12 03:02:00,
2013-05-11 23:07:00,32.7,29.8,29.95,SSW,203,1.5,1.5,89,0.00,,,0.00,WUHU216HW,2013-05-12 03:07:00,
2013-05-11 23:12:00,32.7,29.8,29.96,WSW,248,0.0,1.5,89,0.00,,,0.00,WUHU216HW,2013-05-12 03:12:00,
2013-05-11 23:17:00,32.7,29.8,29.96,SW,225,4.6,4.6,89,0.00,,,0.00,WUHU216HW,2013-05-12 03:17:00,
2013-05-11 23:22:00,32.9,30.0,29.95,SW,225,2.4,4.6,89,0.00,,,0.00,WUHU216HW,2013-05-12 03:22:00,
2013-05-11 23:27:00,32.7,30.1,29.95,WNW,293,2.2,2.4,90,0.00,,,0.00,WUHU216HW,2013-05-12 03:27:00,
2013-05-11 23:32:00,32.7,29.8,29.95,WSW,248,0.0,2.2,89,0.00,,,0.00,WUHU216HW,2013-05-12 03:32:00,
2013-05-11 23:38:00,32.5,29.9,29.95,West,270,0.0,2.2,90,0.00,,,0.00,WUHU216HW,2013-05-12 03:38:00,
2013-05-11 23:43:00,32.3,29.8,29.95,SE,135,0.0,0.0,90,0.00,,,0.00,WUHU216HW,2013-05-12 03:43:00,
2013-05-11 23:48:00,32.3,29.8,29.95,WSW,248,0.0,0.0,90,0.00,,,0.00,WUHU216HW,2013-05-12 03:48:00,
2013-05-11 23:53:00,32.1,29.6,29.95,WSW,248,0.0,0.0,90,0.00,,,0.00,WUHU216HW,2013-05-12 03:53:00,
2013-05-11 23:58:00,32.3,29.8,29.94,NW,315,2.4,2.4,90,0.00,,,0.00,WUHU216HW,2013-05-12 03:58:00,